createdAt,value
2018-10-21T00:00:35.199Z,96.60
2018-10-21T00:03:04.083Z,96.80
2018-10-21T00:05:32.660Z,96.40
2018-10-21T00:08:01.233Z,96.30
2018-10-21T00:10:29.798Z,96.00
2018-10-21T00:12:58.347Z,96.20
2018-10-21T00:15:27.252Z,95.80
2018-10-21T00:17:55.687Z,96.50
2018-10-21T00:20:24.409Z,97.30
2018-10-21T00:22:53.340Z,96.40
2018-10-21T00:25:22.321Z,96.50
2018-10-21T00:27:51.349Z,96.50
2018-10-21T00:30:20.391Z,95.70
2018-10-21T00:32:50.409Z,97.30
2018-10-21T00:35:19.192Z,97.10
2018-10-21T00:37:47.891Z,96.10
2018-10-21T00:40:16.450Z,96.00
2018-10-21T00:42:45.004Z,96.90
2018-10-21T00:45:13.642Z,96.20
2018-10-21T00:47:42.180Z,96.80
2018-10-21T00:50:11.443Z,96.00
2018-10-21T00:52:40.220Z,96.40
2018-10-21T00:55:09.746Z,95.90
2018-10-21T00:57:38.279Z,96.60
2018-10-21T01:00:08.952Z,96.70
2018-10-21T01:02:37.554Z,96.70
2018-10-21T01:05:06.846Z,96.50
2018-10-21T01:07:35.389Z,96.70
2018-10-21T01:10:04.196Z,97.00
2018-10-21T01:12:32.733Z,96.80
2018-10-21T01:15:01.306Z,96.60
2018-10-21T01:17:29.855Z,97.00
2018-10-21T01:19:58.440Z,97.40
2018-10-21T01:22:27.048Z,98.50
2018-10-21T01:24:55.591Z,97.60
2018-10-21T01:27:24.123Z,97.80
2018-10-21T01:29:52.674Z,96.90
2018-10-21T01:32:21.249Z,96.90
2018-10-21T01:34:49.944Z,97.00
2018-10-21T01:37:18.588Z,96.60
2018-10-21T01:40:53.820Z,97.40
2018-10-21T01:43:24.656Z,97.50
2018-10-21T01:45:53.226Z,97.60
2018-10-21T01:48:23.067Z,98.10
2018-10-21T01:50:51.648Z,97.70
2018-10-21T01:53:20.767Z,97.60
2018-10-21T01:55:49.400Z,96.80
2018-10-21T01:58:17.949Z,97.40
2018-10-21T02:00:46.548Z,97.10
2018-10-21T02:03:15.366Z,96.80
2018-10-21T02:05:44.602Z,97.80
2018-10-21T02:08:13.272Z,97.00
2018-10-21T02:10:41.819Z,96.80
2018-10-21T02:13:10.448Z,96.70
2018-10-21T02:15:38.968Z,97.00
2018-10-21T02:18:07.718Z,97.30
2018-10-21T02:20:36.258Z,97.20
2018-10-21T02:23:04.916Z,97.20
2018-10-21T02:25:33.456Z,97.70
2018-10-21T02:28:02.058Z,97.10
2018-10-21T02:30:31.327Z,96.70
2018-10-21T02:33:00.556Z,97.30
2018-10-21T02:35:29.138Z,97.00
2018-10-21T02:37:58.333Z,97.70
2018-10-21T02:41:42.275Z,98.10
2018-10-21T02:44:19.497Z,97.70
2018-10-21T02:46:48.868Z,96.60
2018-10-21T02:49:18.043Z,96.80
2018-10-21T02:51:51.821Z,97.70
2018-10-21T02:54:27.604Z,97.10
2018-10-21T02:56:56.197Z,96.80
2018-10-21T02:59:25.280Z,97.20
2018-10-21T03:01:54.031Z,97.50
2018-10-21T03:04:22.736Z,97.60
2018-10-21T03:06:51.659Z,98.00
2018-10-21T03:09:20.313Z,98.00
2018-10-21T03:11:48.836Z,97.60
2018-10-21T03:14:17.392Z,97.30
2018-10-21T03:16:45.964Z,98.00
2018-10-21T03:19:14.696Z,97.80
2018-10-21T03:21:43.265Z,97.20
2018-10-21T03:24:11.830Z,97.50
2018-10-21T03:26:40.399Z,96.90
2018-10-21T03:29:08.932Z,96.70
2018-10-21T03:31:37.500Z,96.70
2018-10-21T03:34:06.141Z,96.90
2018-10-21T03:36:34.660Z,96.90
2018-10-21T03:39:03.420Z,96.80
2018-10-21T03:41:31.975Z,96.70
2018-10-21T03:44:00.535Z,96.30
2018-10-21T03:46:29.120Z,96.40
2018-10-21T03:48:57.705Z,97.00
2018-10-21T03:51:26.261Z,97.60
2018-10-21T03:53:54.825Z,97.20
2018-10-21T03:56:23.357Z,97.10
2018-10-21T03:58:51.952Z,97.00
2018-10-21T04:01:20.500Z,97.50
2018-10-21T04:03:49.044Z,97.50
2018-10-21T04:06:17.582Z,98.50
2018-10-21T04:08:46.138Z,97.30
2018-10-21T04:11:14.667Z,97.30
2018-10-21T04:13:43.236Z,96.80
2018-10-21T04:16:11.856Z,97.10
2018-10-21T04:18:40.343Z,97.20
2018-10-21T04:21:08.873Z,97.80
2018-10-21T04:23:37.432Z,98.00
2018-10-21T04:26:06.021Z,97.30
2018-10-21T04:28:34.591Z,97.40
2018-10-21T04:31:03.120Z,97.40
2018-10-21T04:33:45.701Z,96.70
2018-10-21T04:36:17.971Z,97.40
2018-10-21T04:38:55.428Z,96.70
2018-10-21T04:41:23.970Z,97.40
2018-10-21T04:43:52.519Z,98.00
2018-10-21T04:46:21.099Z,97.60
2018-10-21T04:48:49.640Z,98.00
2018-10-21T04:51:18.158Z,97.90
2018-10-21T04:53:46.716Z,99.10
2018-10-21T04:56:15.249Z,97.80
2018-10-21T04:58:43.809Z,97.10
2018-10-21T05:01:12.467Z,96.90
2018-10-21T05:03:41.011Z,97.40
2018-10-21T05:06:09.539Z,97.40
2018-10-21T05:08:38.096Z,97.90
2018-10-21T05:11:06.721Z,97.60
2018-10-21T05:13:35.397Z,97.60
2018-10-21T05:16:04.028Z,97.40
2018-10-21T05:18:32.595Z,97.20
2018-10-21T05:21:01.432Z,97.60
2018-10-21T05:23:30.000Z,97.80
2018-10-21T05:25:58.544Z,98.50
2018-10-21T05:28:27.107Z,97.40
2018-10-21T05:30:55.647Z,97.40
2018-10-21T05:33:24.199Z,98.10
2018-10-21T05:35:52.727Z,98.30
2018-10-21T05:38:21.279Z,96.80
2018-10-21T05:40:49.815Z,97.70
2018-10-21T05:43:18.372Z,97.70
2018-10-21T05:45:46.892Z,97.30
2018-10-21T05:48:15.448Z,97.20
2018-10-21T05:50:44.024Z,97.10
2018-10-21T05:53:12.578Z,97.40
2018-10-21T05:55:41.171Z,98.10
2018-10-21T05:58:09.770Z,97.30
2018-10-21T06:00:38.295Z,97.00
2018-10-21T06:03:06.839Z,97.00
2018-10-21T06:05:37.610Z,97.60
2018-10-21T06:08:06.179Z,98.00
2018-10-21T06:10:34.723Z,97.80
2018-10-21T06:13:03.284Z,96.80
2018-10-21T06:15:31.840Z,96.70
2018-10-21T06:18:00.725Z,97.80
2018-10-21T06:20:33.923Z,97.60
2018-10-21T06:23:02.528Z,97.70
2018-10-21T06:25:31.108Z,99.40
2018-10-21T06:27:59.648Z,98.00
2018-10-21T06:30:28.221Z,97.70
2018-10-21T06:32:56.768Z,97.40
2018-10-21T06:35:25.328Z,97.60
2018-10-21T06:37:53.863Z,97.30
2018-10-21T06:40:22.415Z,98.20
2018-10-21T06:42:50.940Z,98.10
2018-10-21T06:45:19.610Z,97.40
2018-10-21T06:47:48.099Z,98.30
2018-10-21T06:50:18.194Z,98.70
2018-10-21T06:52:46.839Z,98.20
2018-10-21T06:55:15.398Z,98.80
2018-10-21T06:57:45.010Z,98.60
2018-10-21T07:00:13.551Z,97.70
2018-10-21T07:02:42.111Z,99.00
2018-10-21T07:05:22.593Z,98.20
2018-10-21T07:07:51.376Z,98.50
2018-10-21T07:10:20.537Z,98.80
2018-10-21T07:12:49.073Z,99.90
2018-10-21T07:15:17.999Z,99.90
2018-10-21T07:17:46.820Z,99.50
2018-10-21T07:20:15.383Z,97.90
2018-10-21T07:22:44.702Z,96.70
2018-10-21T07:25:13.290Z,96.10
2018-10-21T07:27:41.976Z,95.30
2018-10-21T07:30:12.017Z,94.30
2018-10-21T07:32:41.314Z,93.80
2018-10-21T07:35:11.835Z,93.00
2018-10-21T07:37:41.117Z,92.20
2018-10-21T07:40:10.399Z,91.50
2018-10-21T07:42:38.905Z,90.30
2018-10-21T07:45:07.557Z,89.80
2018-10-21T07:47:36.121Z,90.20
2018-10-21T07:50:05.083Z,88.80
2018-10-21T07:52:33.633Z,87.30
2018-10-21T07:55:02.248Z,84.80
2018-10-21T07:57:30.760Z,84.30
2018-10-21T07:59:59.321Z,82.30
2018-10-21T08:02:27.855Z,80.90
2018-10-21T08:04:56.417Z,81.20
2018-10-21T08:07:36.176Z,81.10
2018-10-21T08:10:04.582Z,80.70
2018-10-21T08:12:33.364Z,79.20
2018-10-21T08:15:01.981Z,77.20
2018-10-21T08:17:30.496Z,75.30
2018-10-21T08:19:59.055Z,74.10
2018-10-21T08:22:27.603Z,74.60
2018-10-21T08:24:56.166Z,79.50
2018-10-21T08:27:24.771Z,74.10
2018-10-21T08:29:53.302Z,74.30
2018-10-21T08:32:21.844Z,75.30
2018-10-21T08:34:50.409Z,72.20
2018-10-21T08:37:18.951Z,70.70
2018-10-21T08:39:47.598Z,71.60
2018-10-21T08:42:16.134Z,73.20
2018-10-21T08:44:44.720Z,72.90
2018-10-21T08:47:13.271Z,65.20
2018-10-21T08:49:41.869Z,67.70
2018-10-21T08:52:10.435Z,73.00
2018-10-21T08:54:38.996Z,64.70
2018-10-21T08:57:07.593Z,67.50
2018-10-21T08:59:36.162Z,67.90
2018-10-21T09:02:04.797Z,65.60
2018-10-21T09:04:33.346Z,64.50
2018-10-21T09:07:01.950Z,60.40
2018-10-21T09:09:30.453Z,61.00
2018-10-21T09:11:59.001Z,64.50
2018-10-21T09:14:27.528Z,64.80
2018-10-21T09:16:56.085Z,59.70
2018-10-21T09:19:24.622Z,62.60
2018-10-21T09:21:53.229Z,58.70
2018-10-21T09:24:21.946Z,57.90
2018-10-21T09:26:50.869Z,58.40
2018-10-21T09:29:21.279Z,61.90
2018-10-21T09:31:49.861Z,60.40
2018-10-21T09:34:18.469Z,57.90
2018-10-21T09:36:47.005Z,57.10
2018-10-21T09:39:15.821Z,58.80
2018-10-21T09:41:44.816Z,55.90
2018-10-21T09:44:13.374Z,55.10
2018-10-21T09:46:42.592Z,55.60
2018-10-21T09:49:12.002Z,55.70
2018-10-21T09:51:40.640Z,59.80
2018-10-21T09:54:09.221Z,53.40
2018-10-21T09:56:38.056Z,54.30
2018-10-21T09:59:07.117Z,54.90
2018-10-21T10:01:41.113Z,50.90
2018-10-21T10:04:10.086Z,56.30
2018-10-21T10:06:38.612Z,57.30
2018-10-21T10:09:10.575Z,53.50
2018-10-21T10:11:39.185Z,51.40
2018-10-21T10:14:07.806Z,52.00
2018-10-21T10:16:36.540Z,51.30
2018-10-21T10:19:05.398Z,52.50
2018-10-21T10:21:33.946Z,51.20
2018-10-21T10:24:02.590Z,51.90
2018-10-21T10:26:31.107Z,50.00
2018-10-21T10:28:59.839Z,52.20
2018-10-21T10:31:28.444Z,48.20
2018-10-21T10:33:57.126Z,49.30
2018-10-21T10:36:25.690Z,50.30
2018-10-21T10:38:54.221Z,49.80
2018-10-21T10:41:22.784Z,47.50
2018-10-21T10:43:51.323Z,49.10
2018-10-21T10:46:19.947Z,50.40
2018-10-21T10:48:48.522Z,46.90
2018-10-21T10:51:17.084Z,48.60
2018-10-21T10:53:45.652Z,45.70
2018-10-21T10:56:14.230Z,46.90
2018-10-21T10:58:42.764Z,45.60
2018-10-21T11:01:11.453Z,46.80
2018-10-21T11:03:39.937Z,47.40
2018-10-21T11:06:08.774Z,47.10
2018-10-21T11:08:37.329Z,45.00
2018-10-21T11:11:06.033Z,47.20
2018-10-21T11:13:34.554Z,46.00
2018-10-21T11:16:04.182Z,50.40
2018-10-21T11:18:32.708Z,49.70
2018-10-21T11:21:01.281Z,47.30
2018-10-21T11:23:29.820Z,49.10
2018-10-21T11:25:58.375Z,50.50
2018-10-21T11:28:26.974Z,49.80
2018-10-21T11:30:55.563Z,50.00
2018-10-21T11:33:24.113Z,50.20
2018-10-21T11:35:52.655Z,50.90
2018-10-21T11:38:21.207Z,52.90
2018-10-21T11:40:49.760Z,51.50
2018-10-21T11:43:18.376Z,50.80
2018-10-21T11:45:46.964Z,51.40
2018-10-21T11:48:15.472Z,52.50
2018-10-21T11:50:44.086Z,52.20
2018-10-21T11:53:12.617Z,53.60
2018-10-21T11:55:42.205Z,49.70
2018-10-21T11:58:13.201Z,50.60
2018-10-21T12:00:42.345Z,50.20
2018-10-21T12:03:11.535Z,50.50
2018-10-21T12:05:40.736Z,52.30
2018-10-21T12:08:09.441Z,49.90
2018-10-21T12:10:37.981Z,52.00
2018-10-21T12:13:06.760Z,51.40
2018-10-21T12:15:35.971Z,50.40
2018-10-21T12:18:04.712Z,50.60
2018-10-21T12:20:33.245Z,51.20
2018-10-21T12:23:01.898Z,52.00
2018-10-21T12:25:30.360Z,52.40
2018-10-21T12:27:58.992Z,52.80
2018-10-21T12:30:27.505Z,52.90
2018-10-21T12:32:56.061Z,52.40
2018-10-21T12:35:24.601Z,52.30
2018-10-21T12:37:53.163Z,52.50
2018-10-21T12:40:21.691Z,52.60
2018-10-21T12:42:50.488Z,52.70
2018-10-21T12:45:19.020Z,52.70
2018-10-21T12:47:47.608Z,53.10
2018-10-21T12:50:16.173Z,53.60
2018-10-21T12:52:44.757Z,53.00
2018-10-21T12:55:13.899Z,53.00
2018-10-21T12:57:42.390Z,51.80
2018-10-21T13:00:11.167Z,53.00
2018-10-21T13:02:39.719Z,52.60
2018-10-21T13:05:08.643Z,52.70
2018-10-21T13:07:37.206Z,52.10
2018-10-21T13:10:06.223Z,53.20
2018-10-21T13:12:34.786Z,51.50
2018-10-21T13:15:03.585Z,52.10
2018-10-21T13:17:32.465Z,52.30
2018-10-21T13:20:00.991Z,51.80
2018-10-21T13:22:29.640Z,52.10
2018-10-21T13:24:58.194Z,51.80
2018-10-21T13:27:26.768Z,52.30
2018-10-21T13:29:55.306Z,52.80
2018-10-21T13:32:23.871Z,52.30
2018-10-21T13:34:52.397Z,52.00
2018-10-21T13:37:20.968Z,51.60
2018-10-21T13:39:49.542Z,50.50
2018-10-21T13:42:18.079Z,51.30
2018-10-21T13:44:46.612Z,49.60
2018-10-21T13:47:15.187Z,50.80
2018-10-21T13:49:43.741Z,52.10
2018-10-21T13:52:12.502Z,52.00
2018-10-21T13:54:40.928Z,52.00
2018-10-21T13:57:09.501Z,52.60
2018-10-21T13:59:38.027Z,52.60
2018-10-21T14:02:06.625Z,51.00
2018-10-21T14:04:35.156Z,51.80
2018-10-21T14:07:03.798Z,50.90
2018-10-21T14:09:32.268Z,51.60
2018-10-21T14:12:00.845Z,49.70
2018-10-21T14:14:29.371Z,50.10
2018-10-21T14:16:57.949Z,50.40
2018-10-21T14:19:26.736Z,50.30
2018-10-21T14:21:55.401Z,50.30
2018-10-21T14:24:23.967Z,50.80
2018-10-21T14:26:52.499Z,50.80
2018-10-21T14:29:21.032Z,49.90
2018-10-21T14:31:49.590Z,51.00
2018-10-21T14:34:18.216Z,51.40
2018-10-21T14:36:46.773Z,50.80
2018-10-21T14:39:15.369Z,51.50
2018-10-21T14:41:43.901Z,51.80
2018-10-21T14:44:12.437Z,51.30
2018-10-21T14:46:41.013Z,51.10
2018-10-21T14:49:10.163Z,52.00
2018-10-21T14:51:38.727Z,51.50
2018-10-21T14:54:07.470Z,52.30
2018-10-21T14:56:36.006Z,51.80
2018-10-21T14:59:04.597Z,51.90
2018-10-21T15:01:33.143Z,52.50
2018-10-21T15:04:01.784Z,53.10
2018-10-21T15:06:30.472Z,54.00
2018-10-21T15:08:59.210Z,53.60
2018-10-21T15:11:27.744Z,53.30
2018-10-21T15:13:56.338Z,52.70
2018-10-21T15:16:24.876Z,53.30
2018-10-21T15:18:53.439Z,52.60
2018-10-21T15:21:22.008Z,53.30
2018-10-21T15:23:50.571Z,53.70
2018-10-21T15:26:19.245Z,53.70
2018-10-21T15:28:47.717Z,54.50
2018-10-21T15:31:16.256Z,54.60
2018-10-21T15:33:44.812Z,53.60
2018-10-21T15:36:13.344Z,52.30
2018-10-21T15:38:41.891Z,53.10
2018-10-21T15:41:10.421Z,53.10
2018-10-21T15:43:38.960Z,53.80
2018-10-21T15:46:07.613Z,53.50
2018-10-21T15:48:36.397Z,53.50
2018-10-21T15:51:04.984Z,54.60
2018-10-21T15:53:33.537Z,54.90
2018-10-21T15:56:02.148Z,54.50
2018-10-21T16:01:10.912Z,54.90
2018-10-21T16:03:39.481Z,55.50
2018-10-21T16:06:08.024Z,56.50
2018-10-21T16:08:36.578Z,56.10
2018-10-21T16:11:05.476Z,56.70
2018-10-21T16:13:34.153Z,58.90
2018-10-21T16:16:02.766Z,59.30
2018-10-21T16:18:31.316Z,60.20
2018-10-21T16:20:59.876Z,59.50
2018-10-21T16:23:28.440Z,59.30
2018-10-21T16:25:57.020Z,61.10
2018-10-21T16:28:25.733Z,63.20
2018-10-21T16:30:54.221Z,64.90
2018-10-21T16:33:22.859Z,64.40
2018-10-21T16:35:51.409Z,65.10
2018-10-21T16:38:19.994Z,65.50
2018-10-21T16:40:48.523Z,67.00
2018-10-21T16:43:17.296Z,67.70
2018-10-21T16:45:45.859Z,69.10
2018-10-21T16:48:14.450Z,68.00
2018-10-21T16:50:42.987Z,69.30
2018-10-21T16:53:11.545Z,69.70
2018-10-21T16:55:40.132Z,69.20
2018-10-21T16:58:08.788Z,69.90
2018-10-21T17:00:37.606Z,70.20
2018-10-21T17:03:06.122Z,71.40
2018-10-21T17:05:34.595Z,72.20
2018-10-21T17:08:03.174Z,71.60
2018-10-21T17:10:32.058Z,72.20
2018-10-21T17:13:00.739Z,73.90
2018-10-21T17:15:29.307Z,72.90
2018-10-21T17:17:57.835Z,74.10
2018-10-21T17:20:26.417Z,74.00
2018-10-21T17:22:55.081Z,74.90
2018-10-21T17:25:23.625Z,75.60
2018-10-21T17:27:52.212Z,77.30
2018-10-21T17:30:20.839Z,76.70
2018-10-21T17:32:49.343Z,76.30
2018-10-21T17:35:17.900Z,77.40
2018-10-21T17:37:46.465Z,77.90
2018-10-21T17:40:15.141Z,78.00
2018-10-21T17:42:43.595Z,76.80
2018-10-21T17:45:13.906Z,75.80
2018-10-21T17:47:42.468Z,75.40
2018-10-21T17:50:12.788Z,76.00
2018-10-21T17:52:41.657Z,75.70
2018-10-21T17:55:10.350Z,75.70
2018-10-21T17:57:38.918Z,77.00
2018-10-21T18:00:09.301Z,78.90
2018-10-21T18:02:37.925Z,78.40
2018-10-21T18:05:08.044Z,78.40
2018-10-21T18:07:36.611Z,80.10
2018-10-21T18:10:05.318Z,80.20
2018-10-21T18:12:33.847Z,79.00
2018-10-21T18:15:02.416Z,79.60
2018-10-21T18:17:30.973Z,79.60
2018-10-21T18:19:59.596Z,81.00
2018-10-21T18:22:28.144Z,80.20
2018-10-21T18:24:56.687Z,80.30
2018-10-21T18:27:25.300Z,81.00
2018-10-21T18:29:53.841Z,82.30
2018-10-21T18:32:22.393Z,80.50
2018-10-21T18:34:50.929Z,80.90
2018-10-21T18:37:19.476Z,81.30
2018-10-21T18:39:48.009Z,80.70
2018-10-21T18:42:16.559Z,81.60
2018-10-21T18:44:45.103Z,81.00
2018-10-21T18:47:13.676Z,80.50
2018-10-21T18:49:42.244Z,80.80
2018-10-21T18:52:10.871Z,81.10
2018-10-21T18:54:39.373Z,81.50
2018-10-21T18:57:07.934Z,82.40
2018-10-21T18:59:36.484Z,81.20
2018-10-21T19:02:05.431Z,83.20
2018-10-21T19:04:33.983Z,83.10
2018-10-21T19:07:02.655Z,84.00
2018-10-21T19:09:31.168Z,84.00
2018-10-21T19:11:59.740Z,83.90
2018-10-21T19:14:28.808Z,84.70
2018-10-21T19:16:57.357Z,84.40
2018-10-21T19:19:25.889Z,85.50
2018-10-21T19:21:54.457Z,83.70
2018-10-21T19:24:22.979Z,85.90
2018-10-21T19:26:51.553Z,83.20
2018-10-21T19:29:20.075Z,84.50
2018-10-21T19:31:48.626Z,84.90
2018-10-21T19:34:17.443Z,84.40
2018-10-21T19:36:45.903Z,85.20
2018-10-21T19:39:14.487Z,85.30
2018-10-21T19:41:43.043Z,87.10
2018-10-21T19:44:11.981Z,86.70
2018-10-21T19:46:40.621Z,85.90
2018-10-21T19:49:09.816Z,85.40
2018-10-21T19:51:38.307Z,86.20
2018-10-21T19:54:06.909Z,85.30
2018-10-21T19:56:35.464Z,86.70
2018-10-21T19:59:04.993Z,84.30
2018-10-21T20:01:34.114Z,85.00
2018-10-21T20:04:02.677Z,86.10
2018-10-21T20:06:31.236Z,85.30
2018-10-21T20:08:59.773Z,86.60
2018-10-21T20:11:28.324Z,87.40
2018-10-21T20:13:56.897Z,86.30
2018-10-21T20:16:25.462Z,86.70
2018-10-21T20:18:54.040Z,86.70
2018-10-21T20:21:22.581Z,87.40
2018-10-21T20:23:51.106Z,86.90
2018-10-21T20:26:19.648Z,86.80
2018-10-21T20:28:48.185Z,86.20
2018-10-21T20:31:16.843Z,85.30
2018-10-21T20:33:45.419Z,86.50
2018-10-21T20:36:14.011Z,86.60
2018-10-21T20:38:42.506Z,87.80
2018-10-21T20:41:11.059Z,86.80
2018-10-21T20:43:39.604Z,87.80
2018-10-21T20:46:08.217Z,86.70
2018-10-21T20:48:36.728Z,88.40
2018-10-21T20:51:05.591Z,88.80
2018-10-21T20:53:34.089Z,89.70
2018-10-21T20:56:02.656Z,89.30
2018-10-21T20:58:31.614Z,89.40
2018-10-21T21:01:00.144Z,90.10
2018-10-21T21:03:28.692Z,89.20
2018-10-21T21:05:57.232Z,89.60
2018-10-21T21:08:25.862Z,89.60
2018-10-21T21:10:54.388Z,89.70
2018-10-21T21:13:22.942Z,89.10
2018-10-21T21:15:51.465Z,90.30
2018-10-21T21:18:20.008Z,90.00
2018-10-21T21:20:48.535Z,90.30
2018-10-21T21:23:17.079Z,90.50
2018-10-21T21:25:45.593Z,90.20
2018-10-21T21:28:14.245Z,90.20
2018-10-21T21:30:42.829Z,90.40
2018-10-21T21:33:11.315Z,90.00
2018-10-21T21:35:39.836Z,90.20
2018-10-21T21:38:08.388Z,89.60
2018-10-21T21:40:36.920Z,90.00
2018-10-21T21:43:05.640Z,90.30
2018-10-21T21:45:34.188Z,90.00
2018-10-21T21:48:02.775Z,90.00
2018-10-21T21:50:31.317Z,89.70
2018-10-21T21:52:59.879Z,88.80
2018-10-21T21:55:28.403Z,88.10
2018-10-21T21:57:57.004Z,90.00
2018-10-21T22:00:25.553Z,89.30
2018-10-21T22:02:54.093Z,87.20
2018-10-21T22:05:22.649Z,87.50
2018-10-21T22:07:51.216Z,87.30
2018-10-21T22:10:19.825Z,87.90
2018-10-21T22:12:48.319Z,87.00
2018-10-21T22:15:16.875Z,88.10
2018-10-21T22:17:45.423Z,88.20
2018-10-21T22:20:14.212Z,87.40
2018-10-21T22:22:43.236Z,86.50
2018-10-21T22:25:11.840Z,87.60
2018-10-21T22:27:40.387Z,86.80
2018-10-21T22:30:10.189Z,87.30
2018-10-21T22:32:39.004Z,86.50
2018-10-21T22:35:08.507Z,86.90
2018-10-21T22:37:37.268Z,85.20
2018-10-21T22:40:06.492Z,86.00
2018-10-21T22:42:35.025Z,87.80
2018-10-21T22:45:03.588Z,87.50
2018-10-21T22:47:32.140Z,88.10
2018-10-21T22:50:00.722Z,88.70
2018-10-21T22:52:29.280Z,88.40
2018-10-21T22:54:57.795Z,88.20
2018-10-21T22:57:26.364Z,87.40
2018-10-21T22:59:55.043Z,87.30
2018-10-21T23:02:23.580Z,86.90
2018-10-21T23:04:52.118Z,86.20
2018-10-21T23:07:20.679Z,87.30
2018-10-21T23:09:49.190Z,89.30
2018-10-21T23:12:17.997Z,89.30
2018-10-21T23:14:46.499Z,88.40
2018-10-21T23:17:15.075Z,88.00
2018-10-21T23:19:50.375Z,89.00
2018-10-21T23:22:19.068Z,88.10
2018-10-21T23:24:47.796Z,89.60
2018-10-21T23:27:16.348Z,89.70
2018-10-21T23:29:44.947Z,89.80
2018-10-21T23:32:13.600Z,89.40
2018-10-21T23:34:42.115Z,89.90
2018-10-21T23:37:10.672Z,90.30
2018-10-21T23:39:39.210Z,90.00
2018-10-21T23:42:07.860Z,89.90
2018-10-21T23:44:36.327Z,89.30
2018-10-21T23:47:04.995Z,89.40
2018-10-21T23:49:33.541Z,90.00
2018-10-21T23:52:02.101Z,90.30
2018-10-21T23:54:30.636Z,90.20
2018-10-21T23:56:59.488Z,89.50
2018-10-21T23:59:28.045Z,90.30
